Arietta, New York
Current Conditions -  °F | °C
As of 5:15 AM on Wednesday 22 Oct 2014 (Local Time) from KNY0 Reporting Station
Overcast Overcast  
Wind Chill:   Ceiling: 1300
Heat Index:   Visibility: 10mi
Dew Point:   Wind: 7mph
Humidity: 87%   Direction: 40°NE
Pressure: 30.04"   Gusts: NA
Location:  43.5975°N, 74.5775°W
Report Text: KNY0 220915Z AUTO 04006KT 10SM BKN013 OVC020 09/07 A3004 RMK AO2 T00850065
Loading
Personal Weather Stations






























Interactive Weather Map
Tropical Storm Tracking
New forecast layout! Learn more

10-Day Weather Forecast

Advertisements
Track Severe Weather on mobile